Terminal Aerodrome Forecast
Issued by NWS Milwaukee/Sullivan, WI

Home | Current Version | Previous Version | Text Only | Print | Product List | Glossary On
Versions: 1 2 3 4 5 6 7 8 9 10 11 12 13 14 15 16 17 18 19 20 21 22 23
000
FTUS43 KMKX 270009 AAA
TAFMSN
TAF AMD
KMSN 270009Z 2700/2724 22008KT P6SM VCSH OVC009
     FM270500 32006KT 5SM -SHRA OVC008
     FM270600 33006KT 5SM SHRA OVC006
     FM270800 32007KT 5SM SHRA BR OVC005
     FM271600 28011KT P6SM VCSH OVC010
     FM271800 27013KT P6SM OVC015
     FM272000 26013G21KT P6SM BKN020=

USA.gov is the U.S. government's official web portal to all federal, state and local government web resources and services.